sensor_id;sensor_type;location;lat;lon;timestamp;pressure;altitude;pressure_sealevel;temperature;humidity
44675;BME280;30388;52.038;-1.478;2022-11-11T00:01:17;65976.98;;;12.08;100.00
44675;BME280;30388;52.038;-1.478;2022-11-11T00:03:44;66000.84;;;12.16;100.00
44675;BME280;30388;52.038;-1.478;2022-11-11T00:06:13;66015.54;;;12.57;100.00
44675;BME280;30388;52.038;-1.478;2022-11-11T00:08:41;65986.25;;;12.42;100.00
44675;BME280;30388;52.038;-1.478;2022-11-11T00:11:11;65992.23;;;12.49;100.00
44675;BME280;30388;52.038;-1.478;2022-11-11T00:13:39;65991.77;;;12.27;100.00
44675;BME280;30388;52.038;-1.478;2022-11-11T00:16:09;66031.28;;;12.77;100.00
44675;BME280;30388;52.038;-1.478;2022-11-11T00:18:38;66003.11;;;12.41;100.00
44675;BME280;30388;52.038;-1.478;2022-11-11T00:21:08;66029.34;;;12.73;100.00
44675;BME280;30388;52.038;-1.478;2022-11-11T00:23:39;65975.45;;;12.55;100.00
44675;BME280;30388;52.038;-1.478;2022-11-11T00:26:06;65908.22;;;11.70;100.00
44675;BME280;30388;52.038;-1.478;2022-11-11T00:28:34;65974.86;;;12.05;100.00
44675;BME280;30388;52.038;-1.478;2022-11-11T00:31:02;66022.84;;;12.65;100.00
44675;BME280;30388;52.038;-1.478;2022-11-11T00:33:30;65998.26;;;12.57;100.00
44675;BME280;30388;52.038;-1.478;2022-11-11T00:35:58;66017.74;;;12.59;100.00
44675;BME280;30388;52.038;-1.478;2022-11-11T00:38:25;66006.06;;;12.44;100.00
44675;BME280;30388;52.038;-1.478;2022-11-11T00:40:52;65953.14;;;12.27;100.00
44675;BME280;30388;52.038;-1.478;2022-11-11T00:43:19;65955.16;;;12.30;100.00
44675;BME280;30388;52.038;-1.478;2022-11-11T00:45:46;65962.29;;;12.39;100.00
44675;BME280;30388;52.038;-1.478;2022-11-11T00:48:13;65957.24;;;12.31;100.00
44675;BME280;30388;52.038;-1.478;2022-11-11T00:50:40;65977.73;;;12.57;100.00
44675;BME280;30388;52.038;-1.478;2022-11-11T00:53:11;66004.31;;;12.42;100.00
44675;BME280;30388;52.038;-1.478;2022-11-11T00:55:39;65989.43;;;12.23;100.00
44675;BME280;30388;52.038;-1.478;2022-11-11T00:58:07;66019.26;;;12.61;100.00
44675;BME280;30388;52.038;-1.478;2022-11-11T01:00:34;65948.68;;;11.94;100.00
44675;BME280;30388;52.038;-1.478;2022-11-11T01:03:02;65942.06;;;12.13;100.00
44675;BME280;30388;52.038;-1.478;2022-11-11T01:05:29;65966.35;;;12.44;100.00
44675;BME280;30388;52.038;-1.478;2022-11-11T01:07:56;65977.47;;;12.58;100.00
44675;BME280;30388;52.038;-1.478;2022-11-11T01:10:23;65953.30;;;12.01;100.00
44675;BME280;30388;52.038;-1.478;2022-11-11T01:12:56;65975.72;;;12.29;100.00
44675;BME280;30388;52.038;-1.478;2022-11-11T01:15:23;66013.84;;;13.03;100.00
44675;BME280;30388;52.038;-1.478;2022-11-11T01:17:50;65965.56;;;12.16;100.00
44675;BME280;30388;52.038;-1.478;2022-11-11T01:20:17;65987.02;;;12.21;100.00
44675;BME280;30388;52.038;-1.478;2022-11-11T01:22:44;65989.01;;;12.46;100.00
44675;BME280;30388;52.038;-1.478;2022-11-11T01:25:12;65956.30;;;12.04;100.00
44675;BME280;30388;52.038;-1.478;2022-11-11T01:27:40;65976.59;;;12.29;100.00
44675;BME280;30388;52.038;-1.478;2022-11-11T01:30:07;65975.98;;;12.07;100.00
44675;BME280;30388;52.038;-1.478;2022-11-11T01:32:35;65967.42;;;12.45;100.00
44675;BME280;30388;52.038;-1.478;2022-11-11T01:35:02;65972.93;;;12.03;100.00
44675;BME280;30388;52.038;-1.478;2022-11-11T01:37:31;66019.28;;;12.84;100.00
44675;BME280;30388;52.038;-1.478;2022-11-11T01:39:58;65990.76;;;12.47;100.00
44675;BME280;30388;52.038;-1.478;2022-11-11T01:42:25;65912.92;;;11.49;100.00
44675;BME280;30388;52.038;-1.478;2022-11-11T01:44:52;65978.61;;;12.32;100.00
44675;BME280;30388;52.038;-1.478;2022-11-11T01:47:20;66013.91;;;12.54;100.00
44675;BME280;30388;52.038;-1.478;2022-11-11T01:49:51;65999.18;;;12.58;100.00
44675;BME280;30388;52.038;-1.478;2022-11-11T01:52:23;65959.73;;;12.35;100.00
44675;BME280;30388;52.038;-1.478;2022-11-11T01:54:55;65967.33;;;12.45;100.00
44675;BME280;30388;52.038;-1.478;2022-11-11T01:57:27;65953.66;;;12.27;100.00
44675;BME280;30388;52.038;-1.478;2022-11-11T02:00:00;66039.53;;;12.86;100.00
44675;BME280;30388;52.038;-1.478;2022-11-11T02:02:36;65988.72;;;12.45;100.00
44675;BME280;30388;52.038;-1.478;2022-11-11T02:05:06;65991.40;;;12.48;100.00
44675;BME280;30388;52.038;-1.478;2022-11-11T02:07:37;65967.24;;;12.18;100.00
44675;BME280;30388;52.038;-1.478;2022-11-11T02:10:08;65997.01;;;12.55;100.00
44675;BME280;30388;52.038;-1.478;2022-11-11T02:12:35;65985.67;;;12.41;100.00
44675;BME280;30388;52.038;-1.478;2022-11-11T02:15:03;65986.70;;;12.42;100.00
44675;BME280;30388;52.038;-1.478;2022-11-11T02:17:31;66024.86;;;12.68;100.00
44675;BME280;30388;52.038;-1.478;2022-11-11T02:19:59;65988.25;;;12.45;100.00
44675;BME280;30388;52.038;-1.478;2022-11-11T02:22:33;66014.94;;;12.78;100.00
44675;BME280;30388;52.038;-1.478;2022-11-11T02:25:06;66004.00;;;12.42;100.00
44675;BME280;30388;52.038;-1.478;2022-11-11T02:27:37;65934.80;;;12.53;100.00
44675;BME280;30388;52.038;-1.478;2022-11-11T02:30:08;65971.77;;;12.23;100.00
44675;BME280;30388;52.038;-1.478;2022-11-11T02:32:35;65968.61;;;12.19;100.00
44675;BME280;30388;52.038;-1.478;2022-11-11T02:35:10;65993.60;;;12.51;100.00
44675;BME280;30388;52.038;-1.478;2022-11-11T02:37:38;66000.30;;;12.59;100.00
44675;BME280;30388;52.038;-1.478;2022-11-11T02:40:06;66011.85;;;12.74;100.00
44675;BME280;30388;52.038;-1.478;2022-11-11T02:42:34;65999.23;;;12.58;100.00
44675;BME280;30388;52.038;-1.478;2022-11-11T02:45:01;65980.87;;;12.35;100.00
44675;BME280;30388;52.038;-1.478;2022-11-11T02:47:28;65935.96;;;12.05;100.00
44675;BME280;30388;52.038;-1.478;2022-11-11T02:49:55;65953.77;;;12.28;100.00
44675;BME280;30388;52.038;-1.478;2022-11-11T02:52:22;65942.82;;;12.14;100.00
44675;BME280;30388;52.038;-1.478;2022-11-11T02:54:49;65965.51;;;12.42;100.00
44675;BME280;30388;52.038;-1.478;2022-11-11T02:57:17;65992.05;;;12.27;100.00
44675;BME280;30388;52.038;-1.478;2022-11-11T02:59:44;66002.77;;;12.41;100.00
44675;BME280;30388;52.038;-1.478;2022-11-11T03:02:11;65996.12;;;12.33;100.00
44675;BME280;30388;52.038;-1.478;2022-11-11T03:04:38;66005.55;;;12.45;100.00
44675;BME280;30388;52.038;-1.478;2022-11-11T03:07:06;66037.82;;;12.85;100.00
44675;BME280;30388;52.038;-1.478;2022-11-11T03:09:33;66006.17;;;12.44;100.00
44675;BME280;30388;52.038;-1.478;2022-11-11T03:12:01;66014.80;;;12.78;100.00
44675;BME280;30388;52.038;-1.478;2022-11-11T03:14:28;65981.14;;;12.34;100.00
44675;BME280;30388;52.038;-1.478;2022-11-11T03:16:56;66029.75;;;12.75;100.00
44675;BME280;30388;52.038;-1.478;2022-11-11T03:19:23;66015.76;;;12.57;100.00
44675;BME280;30388;52.038;-1.478;2022-11-11T03:21:49;66007.77;;;12.47;100.00
44675;BME280;30388;52.038;-1.478;2022-11-11T03:24:16;65907.18;;;11.69;100.00
44675;BME280;30388;52.038;-1.478;2022-11-11T03:26:43;65962.78;;;11.90;100.00
44675;BME280;30388;52.038;-1.478;2022-11-11T03:29:11;65972.31;;;12.24;100.00
44675;BME280;30388;52.038;-1.478;2022-11-11T03:31:38;65967.08;;;12.45;100.00
44675;BME280;30388;52.038;-1.478;2022-11-11T03:34:05;66005.66;;;12.67;100.00
44675;BME280;30388;52.038;-1.478;2022-11-11T03:36:35;65996.42;;;12.32;100.00
44675;BME280;30388;52.038;-1.478;2022-11-11T03:39:02;66018.07;;;12.60;100.00
44675;BME280;30388;52.038;-1.478;2022-11-11T03:41:29;65994.97;;;12.53;100.00
44675;BME280;30388;52.038;-1.478;2022-11-11T03:43:56;65985.80;;;12.42;100.00
44675;BME280;30388;52.038;-1.478;2022-11-11T03:46:23;65995.67;;;12.54;100.00
44675;BME280;30388;52.038;-1.478;2022-11-11T03:48:50;66056.42;;;13.07;100.00
44675;BME280;30388;52.038;-1.478;2022-11-11T03:51:17;66045.39;;;12.94;100.00
44675;BME280;30388;52.038;-1.478;2022-11-11T03:53:44;66053.72;;;13.05;100.00
44675;BME280;30388;52.038;-1.478;2022-11-11T03:56:11;66013.55;;;12.54;100.00
44675;BME280;30388;52.038;-1.478;2022-11-11T03:58:38;66033.15;;;12.79;100.00
44675;BME280;30388;52.038;-1.478;2022-11-11T04:01:05;66025.43;;;12.70;100.00
44675;BME280;30388;52.038;-1.478;2022-11-11T04:03:32;66039.74;;;12.87;100.00
44675;BME280;30388;52.038;-1.478;2022-11-11T04:05:59;66044.31;;;12.93;100.00
44675;BME280;30388;52.038;-1.478;2022-11-11T04:08:26;66006.49;;;12.46;100.00
44675;BME280;30388;52.038;-1.478;2022-11-11T04:10:54;66060.71;;;13.14;100.00
44675;BME280;30388;52.038;-1.478;2022-11-11T04:13:21;66046.44;;;12.96;100.00
44675;BME280;30388;52.038;-1.478;2022-11-11T04:15:48;65987.35;;;12.43;100.00
44675;BME280;30388;52.038;-1.478;2022-11-11T04:18:16;66036.22;;;13.05;100.00
44675;BME280;30388;52.038;-1.478;2022-11-11T04:20:43;66050.31;;;13.00;100.00
44675;BME280;30388;52.038;-1.478;2022-11-11T04:23:11;66051.69;;;12.81;100.00
44675;BME280;30388;52.038;-1.478;2022-11-11T04:25:38;66051.38;;;13.01;100.00
44675;BME280;30388;52.038;-1.478;2022-11-11T04:28:05;66004.74;;;12.91;100.00
44675;BME280;30388;52.038;-1.478;2022-11-11T04:30:32;66006.53;;;12.68;100.00
44675;BME280;30388;52.038;-1.478;2022-11-11T04:32:59;65998.58;;;12.35;100.00
44675;BME280;30388;52.038;-1.478;2022-11-11T04:35:27;65989.46;;;12.24;100.00
44675;BME280;30388;52.038;-1.478;2022-11-11T04:37:54;66009.04;;;12.71;100.00
44675;BME280;30388;52.038;-1.478;2022-11-11T04:40:22;66003.18;;;12.63;100.00
44675;BME280;30388;52.038;-1.478;2022-11-11T04:42:52;65972.33;;;12.25;100.00
44675;BME280;30388;52.038;-1.478;2022-11-11T04:45:19;66011.67;;;12.52;100.00
44675;BME280;30388;52.038;-1.478;2022-11-11T04:47:56;66001.40;;;12.38;100.00
44675;BME280;30388;52.038;-1.478;2022-11-11T04:50:25;66003.26;;;12.63;100.00
44675;BME280;30388;52.038;-1.478;2022-11-11T04:52:53;65980.33;;;12.34;100.00
44675;BME280;30388;52.038;-1.478;2022-11-11T04:55:21;66011.08;;;12.73;100.00
44675;BME280;30388;52.038;-1.478;2022-11-11T04:57:48;66003.53;;;12.63;100.00
44675;BME280;30388;52.038;-1.478;2022-11-11T05:00:16;65981.46;;;12.63;100.00
44675;BME280;30388;52.038;-1.478;2022-11-11T05:02:44;66006.45;;;12.45;100.00
44675;BME280;30388;52.038;-1.478;2022-11-11T05:05:11;65987.64;;;12.44;100.00
44675;BME280;30388;52.038;-1.478;2022-11-11T05:07:39;66009.96;;;12.71;100.00
44675;BME280;30388;52.038;-1.478;2022-11-11T05:10:06;66015.27;;;12.56;100.00
44675;BME280;30388;52.038;-1.478;2022-11-11T05:12:34;66016.17;;;12.57;100.00
44675;BME280;30388;52.038;-1.478;2022-11-11T05:15:00;66028.10;;;12.74;100.00
44675;BME280;30388;52.038;-1.478;2022-11-11T05:17:27;66052.26;;;13.03;100.00
44675;BME280;30388;52.038;-1.478;2022-11-11T05:19:54;66050.14;;;13.01;100.00
44675;BME280;30388;52.038;-1.478;2022-11-11T05:22:24;66047.09;;;12.97;100.00
44675;BME280;30388;52.038;-1.478;2022-11-11T05:24:52;66058.43;;;13.11;100.00
44675;BME280;30388;52.038;-1.478;2022-11-11T05:27:19;66057.26;;;13.09;100.00
44675;BME280;30388;52.038;-1.478;2022-11-11T05:29:47;66012.47;;;12.52;100.00
44675;BME280;30388;52.038;-1.478;2022-11-11T05:32:16;66010.16;;;12.72;100.00
44675;BME280;30388;52.038;-1.478;2022-11-11T05:34:44;66023.39;;;12.67;100.00
44675;BME280;30388;52.038;-1.478;2022-11-11T05:37:12;65969.91;;;12.21;100.00
44675;BME280;30388;52.038;-1.478;2022-11-11T05:39:39;65955.86;;;12.31;100.00
44675;BME280;30388;52.038;-1.478;2022-11-11T05:42:06;65961.55;;;12.59;100.00
44675;BME280;30388;52.038;-1.478;2022-11-11T05:44:33;65968.72;;;12.47;100.00
44675;BME280;30388;52.038;-1.478;2022-11-11T05:47:00;65939.87;;;12.10;100.00
44675;BME280;30388;52.038;-1.478;2022-11-11T05:49:28;65927.38;;;11.95;100.00
44675;BME280;30388;52.038;-1.478;2022-11-11T05:51:55;65950.38;;;12.24;100.00
44675;BME280;30388;52.038;-1.478;2022-11-11T05:54:22;65941.19;;;12.13;100.00
44675;BME280;30388;52.038;-1.478;2022-11-11T05:56:50;65960.97;;;12.37;100.00
44675;BME280;30388;52.038;-1.478;2022-11-11T05:59:18;66004.55;;;12.44;100.00
44675;BME280;30388;52.038;-1.478;2022-11-11T06:01:46;66007.10;;;12.69;100.00
44675;BME280;30388;52.038;-1.478;2022-11-11T06:04:14;65990.92;;;12.49;100.00
44675;BME280;30388;52.038;-1.478;2022-11-11T06:06:41;65975.49;;;12.29;100.00
44675;BME280;30388;52.038;-1.478;2022-11-11T06:09:08;66011.11;;;12.52;100.00
44675;BME280;30388;52.038;-1.478;2022-11-11T06:11:36;66016.24;;;12.80;100.00
44675;BME280;30388;52.038;-1.478;2022-11-11T06:14:03;65961.70;;;12.11;100.00
44675;BME280;30388;52.038;-1.478;2022-11-11T06:16:30;65938.27;;;12.09;100.00
44675;BME280;30388;52.038;-1.478;2022-11-11T06:18:57;65992.98;;;12.77;100.00
44675;BME280;30388;52.038;-1.478;2022-11-11T06:21:25;66031.57;;;12.77;100.00
44675;BME280;30388;52.038;-1.478;2022-11-11T06:23:52;66023.79;;;12.67;100.00
44675;BME280;30388;52.038;-1.478;2022-11-11T06:26:19;66013.41;;;12.76;100.00
44675;BME280;30388;52.038;-1.478;2022-11-11T06:28:48;66000.02;;;12.60;100.00
44675;BME280;30388;52.038;-1.478;2022-11-11T06:31:17;65959.93;;;12.35;100.00
44675;BME280;30388;52.038;-1.478;2022-11-11T06:33:45;66010.32;;;12.71;100.00
44675;BME280;30388;52.038;-1.478;2022-11-11T06:36:14;65994.61;;;12.53;100.00
44675;BME280;30388;52.038;-1.478;2022-11-11T06:38:41;65987.17;;;12.43;100.00
44675;BME280;30388;52.038;-1.478;2022-11-11T06:41:10;66055.22;;;13.08;100.00
44675;BME280;30388;52.038;-1.478;2022-11-11T06:43:37;66076.74;;;13.12;100.00
44675;BME280;30388;52.038;-1.478;2022-11-11T06:46:05;66076.23;;;13.34;100.00
44675;BME280;30388;52.038;-1.478;2022-11-11T06:48:33;65978.65;;;12.32;100.00
44675;BME280;30388;52.038;-1.478;2022-11-11T06:51:02;66012.45;;;12.53;100.00
44675;BME280;30388;52.038;-1.478;2022-11-11T06:53:30;66001.70;;;12.62;100.00
44675;BME280;30388;52.038;-1.478;2022-11-11T06:55:57;65960.90;;;12.10;100.00
44675;BME280;30388;52.038;-1.478;2022-11-11T06:58:24;65952.11;;;12.25;100.00
44675;BME280;30388;52.038;-1.478;2022-11-11T07:00:51;65982.60;;;12.38;100.00
44675;BME280;30388;52.038;-1.478;2022-11-11T07:03:20;65989.55;;;12.47;100.00
44675;BME280;30388;52.038;-1.478;2022-11-11T07:05:47;65951.33;;;11.98;100.00
44675;BME280;30388;52.038;-1.478;2022-11-11T07:08:16;65932.04;;;12.49;100.00
44675;BME280;30388;52.038;-1.478;2022-11-11T07:10:45;65911.21;;;12.23;100.00
44675;BME280;30388;52.038;-1.478;2022-11-11T07:13:13;65911.36;;;12.23;100.00
44675;BME280;30388;52.038;-1.478;2022-11-11T07:15:41;65916.18;;;11.80;100.00
44675;BME280;30388;52.038;-1.478;2022-11-11T07:18:10;65921.29;;;11.86;100.00
44675;BME280;30388;52.038;-1.478;2022-11-11T07:20:38;65946.01;;;12.18;100.00
44675;BME280;30388;52.038;-1.478;2022-11-11T07:23:05;65940.99;;;12.12;100.00
44675;BME280;30388;52.038;-1.478;2022-11-11T07:25:33;65944.83;;;12.17;100.00
44675;BME280;30388;52.038;-1.478;2022-11-11T07:28:00;65923.89;;;12.12;100.00
44675;BME280;30388;52.038;-1.478;2022-11-11T07:30:26;65893.83;;;12.01;100.00
44675;BME280;30388;52.038;-1.478;2022-11-11T07:32:54;65951.18;;;12.24;100.00
44675;BME280;30388;52.038;-1.478;2022-11-11T07:35:22;65980.98;;;12.35;100.00
44675;BME280;30388;52.038;-1.478;2022-11-11T07:37:49;65959.13;;;12.35;100.00
44675;BME280;30388;52.038;-1.478;2022-11-11T07:40:17;65986.77;;;12.43;100.00
44675;BME280;30388;52.038;-1.478;2022-11-11T07:42:45;66008.11;;;12.48;100.00
44675;BME280;30388;52.038;-1.478;2022-11-11T07:45:13;66040.92;;;12.66;100.00
44675;BME280;30388;52.038;-1.478;2022-11-11T07:47:44;66035.57;;;12.33;100.00
44675;BME280;30388;52.038;-1.478;2022-11-11T07:50:12;66007.64;;;11.98;100.00
44675;BME280;30388;52.038;-1.478;2022-11-11T07:52:40;66013.75;;;12.32;100.00
44675;BME280;30388;52.038;-1.478;2022-11-11T07:55:08;66011.84;;;12.52;100.00
44675;BME280;30388;52.038;-1.478;2022-11-11T07:57:36;65996.23;;;12.32;100.00
44675;BME280;30388;52.038;-1.478;2022-11-11T08:00:04;66072.75;;;13.06;100.00
44675;BME280;30388;52.038;-1.478;2022-11-11T08:02:32;66053.00;;;13.04;100.00
44675;BME280;30388;52.038;-1.478;2022-11-11T08:04:59;66066.86;;;12.99;100.00
44675;BME280;30388;52.038;-1.478;2022-11-11T08:07:26;66062.40;;;13.16;100.00
44675;BME280;30388;52.038;-1.478;2022-11-11T08:09:53;66050.89;;;12.52;100.00
44675;BME280;30388;52.038;-1.478;2022-11-11T08:12:20;66084.44;;;12.94;100.00
44675;BME280;30388;52.038;-1.478;2022-11-11T08:14:47;66028.11;;;12.72;100.00
44675;BME280;30388;52.038;-1.478;2022-11-11T08:17:14;66044.51;;;12.93;100.00
44675;BME280;30388;52.038;-1.478;2022-11-11T08:19:41;66033.78;;;12.80;100.00
44675;BME280;30388;52.038;-1.478;2022-11-11T08:22:08;66058.23;;;12.89;100.00
44675;BME280;30388;52.038;-1.478;2022-11-11T08:24:35;65951.32;;;11.98;100.00
44675;BME280;30388;52.038;-1.478;2022-11-11T08:27:03;66026.95;;;12.72;100.00
44675;BME280;30388;52.038;-1.478;2022-11-11T08:29:29;65982.62;;;12.15;100.00
44675;BME280;30388;52.038;-1.478;2022-11-11T08:31:56;65929.97;;;11.98;100.00
44675;BME280;30388;52.038;-1.478;2022-11-11T08:34:23;65905.39;;;11.89;100.00
44675;BME280;30388;52.038;-1.478;2022-11-11T08:36:50;65897.79;;;11.58;100.00
44675;BME280;30388;52.038;-1.478;2022-11-11T08:39:17;65953.99;;;12.01;100.00
44675;BME280;30388;52.038;-1.478;2022-11-11T08:41:44;65914.61;;;11.78;100.00
44675;BME280;30388;52.038;-1.478;2022-11-11T08:44:11;65954.39;;;12.28;100.00
44675;BME280;30388;52.038;-1.478;2022-11-11T08:46:38;65911.52;;;12.24;100.00
44675;BME280;30388;52.038;-1.478;2022-11-11T08:49:05;65948.07;;;11.94;100.00
44675;BME280;30388;52.038;-1.478;2022-11-11T08:51:32;65981.43;;;12.14;100.00
44675;BME280;30388;52.038;-1.478;2022-11-11T08:53:59;65966.93;;;12.18;100.00
44675;BME280;30388;52.038;-1.478;2022-11-11T08:56:26;65965.21;;;12.16;100.00
44675;BME280;30388;52.038;-1.478;2022-11-11T08:58:53;65963.60;;;12.40;100.00
44675;BME280;30388;52.038;-1.478;2022-11-11T09:01:20;65956.50;;;12.05;100.00
44675;BME280;30388;52.038;-1.478;2022-11-11T09:03:47;65946.64;;;12.19;100.00
44675;BME280;30388;52.038;-1.478;2022-11-11T09:06:15;65985.15;;;12.41;100.00
44675;BME280;30388;52.038;-1.478;2022-11-11T09:08:43;65979.81;;;12.33;100.00
44675;BME280;30388;52.038;-1.478;2022-11-11T09:11:11;66017.54;;;12.59;100.00
44675;BME280;30388;52.038;-1.478;2022-11-11T09:13:38;65967.69;;;12.19;100.00
44675;BME280;30388;52.038;-1.478;2022-11-11T09:16:05;65985.02;;;12.40;100.00
44675;BME280;30388;52.038;-1.478;2022-11-11T09:18:32;65948.85;;;12.21;100.00
44675;BME280;30388;52.038;-1.478;2022-11-11T09:21:00;65974.19;;;12.26;100.00
44675;BME280;30388;52.038;-1.478;2022-11-11T09:23:27;65996.59;;;12.55;100.00
44675;BME280;30388;52.038;-1.478;2022-11-11T09:25:54;66004.67;;;12.43;100.00
44675;BME280;30388;52.038;-1.478;2022-11-11T09:28:21;65984.05;;;12.39;100.00
44675;BME280;30388;52.038;-1.478;2022-11-11T09:30:48;66011.17;;;12.51;100.00
44675;BME280;30388;52.038;-1.478;2022-11-11T09:33:15;66004.21;;;12.43;100.00
44675;BME280;30388;52.038;-1.478;2022-11-11T09:35:45;65953.25;;;12.27;100.00
44675;BME280;30388;52.038;-1.478;2022-11-11T09:38:13;65959.93;;;12.35;100.00
44675;BME280;30388;52.038;-1.478;2022-11-11T09:40:49;65952.43;;;12.26;100.00
44675;BME280;30388;52.038;-1.478;2022-11-11T09:43:26;65970.50;;;12.01;100.00
44675;BME280;30388;52.038;-1.478;2022-11-11T09:46:09;65963.30;;;12.13;100.00
44675;BME280;30388;52.038;-1.478;2022-11-11T09:48:59;65962.04;;;12.38;100.00
44675;BME280;30388;52.038;-1.478;2022-11-11T09:51:36;65963.61;;;12.40;100.00
44675;BME280;30388;52.038;-1.478;2022-11-11T09:54:12;66001.09;;;12.38;100.00
44675;BME280;30388;52.038;-1.478;2022-11-11T09:56:41;65974.75;;;12.27;100.00
44675;BME280;30388;52.038;-1.478;2022-11-11T09:59:15;65977.01;;;12.57;100.00
44675;BME280;30388;52.038;-1.478;2022-11-11T10:01:47;65980.61;;;12.35;100.00
44675;BME280;30388;52.038;-1.478;2022-11-11T10:04:26;66007.52;;;12.69;100.00
44675;BME280;30388;52.038;-1.478;2022-11-11T10:06:59;66035.19;;;13.04;100.00
44675;BME280;30388;52.038;-1.478;2022-11-11T10:09:34;66014.25;;;12.56;100.00
44675;BME280;30388;52.038;-1.478;2022-11-11T10:12:09;66060.08;;;12.64;100.00
44675;BME280;30388;52.038;-1.478;2022-11-11T10:14:39;66014.54;;;12.56;100.00
44675;BME280;30388;52.038;-1.478;2022-11-11T10:17:16;66041.05;;;12.68;100.00
44675;BME280;30388;52.038;-1.478;2022-11-11T10:19:59;66047.40;;;12.97;100.00
44675;BME280;30388;52.038;-1.478;2022-11-11T10:22:33;66035.37;;;12.82;100.00
44675;BME280;30388;52.038;-1.478;2022-11-11T10:25:07;66109.73;;;13.27;100.00
44675;BME280;30388;52.038;-1.478;2022-11-11T10:27:43;66075.40;;;13.32;100.00
44675;BME280;30388;52.038;-1.478;2022-11-11T10:30:17;66084.63;;;13.22;100.00
44675;BME280;30388;52.038;-1.478;2022-11-11T10:32:51;66129.19;;;13.51;100.00
44675;BME280;30388;52.038;-1.478;2022-11-11T10:35:22;66130.45;;;13.53;100.00
44675;BME280;30388;52.038;-1.478;2022-11-11T10:37:59;66118.12;;;13.38;100.00
44675;BME280;30388;52.038;-1.478;2022-11-11T10:40:33;66118.83;;;13.38;100.00
44675;BME280;30388;52.038;-1.478;2022-11-11T10:43:00;66095.01;;;13.35;100.00
44675;BME280;30388;52.038;-1.478;2022-11-11T10:45:32;66104.97;;;13.20;100.00
44675;BME280;30388;52.038;-1.478;2022-11-11T10:48:08;66129.37;;;13.51;100.00
44675;BME280;30388;52.038;-1.478;2022-11-11T10:50:38;66129.75;;;13.52;100.00
44675;BME280;30388;52.038;-1.478;2022-11-11T10:53:12;66137.97;;;13.62;100.00
44675;BME280;30388;52.038;-1.478;2022-11-11T10:55:46;66175.71;;;13.87;100.00
44675;BME280;30388;52.038;-1.478;2022-11-11T10:58:21;66114.48;;;13.32;100.00
44675;BME280;30388;52.038;-1.478;2022-11-11T11:00:52;66132.30;;;13.55;100.00
44675;BME280;30388;52.038;-1.478;2022-11-11T11:03:24;66142.44;;;13.68;100.00
44675;BME280;30388;52.038;-1.478;2022-11-11T11:05:56;66148.46;;;13.75;100.00
44675;BME280;30388;52.038;-1.478;2022-11-11T11:08:29;66191.86;;;14.08;100.00
44675;BME280;30388;52.038;-1.478;2022-11-11T11:11:03;66118.83;;;13.38;100.00
44675;BME280;30388;52.038;-1.478;2022-11-11T11:13:38;66122.01;;;13.42;100.00
44675;BME280;30388;52.038;-1.478;2022-11-11T11:16:09;66151.60;;;13.80;100.00
44675;BME280;30388;52.038;-1.478;2022-11-11T11:18:39;66203.73;;;14.45;100.00
44675;BME280;30388;52.038;-1.478;2022-11-11T11:21:07;66176.34;;;13.67;100.00
44675;BME280;30388;52.038;-1.478;2022-11-11T11:23:35;66192.57;;;14.31;100.00
44675;BME280;30388;52.038;-1.478;2022-11-11T11:26:03;66192.17;;;14.08;100.00
44675;BME280;30388;52.038;-1.478;2022-11-11T11:28:31;66223.10;;;14.24;100.00
44675;BME280;30388;52.038;-1.478;2022-11-11T11:31:00;66245.23;;;14.53;100.00
44675;BME280;30388;52.038;-1.478;2022-11-11T11:33:49;66216.20;;;14.61;100.00
44675;BME280;30388;52.038;-1.478;2022-11-11T11:36:17;66197.32;;;14.15;100.00
44675;BME280;30388;52.038;-1.478;2022-11-11T11:38:46;66234.63;;;14.39;100.00
44675;BME280;30388;52.038;-1.478;2022-11-11T11:41:13;66215.50;;;14.15;100.00
44675;BME280;30388;52.038;-1.478;2022-11-11T11:43:41;66191.20;;;14.30;100.00
44675;BME280;30388;52.038;-1.478;2022-11-11T11:46:17;66212.86;;;14.34;100.00
44675;BME280;30388;52.038;-1.478;2022-11-11T11:48:58;66181.10;;;14.17;100.00
44675;BME280;30388;52.038;-1.478;2022-11-11T11:51:34;66134.14;;;13.57;100.00
44675;BME280;30388;52.038;-1.478;2022-11-11T11:54:14;66116.26;;;13.84;100.00
44675;BME280;30388;52.038;-1.478;2022-11-11T11:56:46;66115.34;;;13.60;100.00
44675;BME280;30388;52.038;-1.478;2022-11-11T11:59:19;66141.80;;;13.67;100.00
44675;BME280;30388;52.038;-1.478;2022-11-11T12:01:54;66164.22;;;13.96;100.00
44675;BME280;30388;52.038;-1.478;2022-11-11T12:04:50;66145.42;;;13.72;100.00
44675;BME280;30388;52.038;-1.478;2022-11-11T12:07:37;66162.76;;;13.93;100.00
44675;BME280;30388;52.038;-1.478;2022-11-11T12:10:21;66129.21;;;13.51;100.00
44675;BME280;30388;52.038;-1.478;2022-11-11T12:12:55;66147.11;;;13.73;100.00
44675;BME280;30388;52.038;-1.478;2022-11-11T12:15:32;66141.99;;;13.67;100.00
44675;BME280;30388;52.038;-1.478;2022-11-11T12:18:15;66193.08;;;14.31;100.00
44675;BME280;30388;52.038;-1.478;2022-11-11T12:20:50;66136.48;;;13.38;100.00
44675;BME280;30388;52.038;-1.478;2022-11-11T12:23:33;66155.49;;;13.84;100.00
44675;BME280;30388;52.038;-1.478;2022-11-11T12:26:08;66170.16;;;14.04;100.00
44675;BME280;30388;52.038;-1.478;2022-11-11T12:28:50;66144.96;;;13.71;100.00
44675;BME280;30388;52.038;-1.478;2022-11-11T12:31:29;66167.25;;;13.77;100.00
44675;BME280;30388;52.038;-1.478;2022-11-11T12:34:08;66214.16;;;14.14;100.00
44675;BME280;30388;52.038;-1.478;2022-11-11T12:36:42;66176.07;;;14.10;100.00
44675;BME280;30388;52.038;-1.478;2022-11-11T12:39:24;66203.49;;;14.45;100.00
44675;BME280;30388;52.038;-1.478;2022-11-11T12:42:05;66223.16;;;14.47;100.00
44675;BME280;30388;52.038;-1.478;2022-11-11T12:44:43;66239.68;;;14.68;100.00
44675;BME280;30388;52.038;-1.478;2022-11-11T12:47:25;66224.30;;;14.71;100.00
44675;BME280;30388;52.038;-1.478;2022-11-11T12:50:00;66215.03;;;14.37;100.00
44675;BME280;30388;52.038;-1.478;2022-11-11T12:52:40;66238.48;;;14.66;100.00